Time;durP1;ratioP1;P1;durP2;ratioP2;P2;SDS_P1;SDS_P2;PMS_P1;PMS_P2;Temp;Humidity;BMP_temperature;BMP_pressure;BME280_temperature;BME280_humidity;BME280_pressure;Samples;Min_cycle;Max_cycle;Signal;HPM_P1;HPM_P2
2021/03/04 00:00:05;;;;;;;37.93;22.03;;;8.40;99.80;;;;;;6210846;22;20479;-84
2021/03/04 00:02:32;;;;;;;41.37;20.60;;;8.40;99.80;;;;;;6219687;22;20439;-83
2021/03/04 00:05:00;;;;;;;43.63;20.30;;;8.30;99.80;;;;;;6208890;23;20439;-83
2021/03/04 00:07:27;;;;;;;39.90;21.83;;;8.30;99.80;;;;;;6207266;23;20523;-84
2021/03/04 00:09:54;;;;;;;42.13;21.00;;;8.20;99.80;;;;;;6205680;23;20442;-85
2021/03/04 00:12:21;;;;;;;37.00;22.13;;;8.20;99.80;;;;;;6197048;23;20437;-84
2021/03/04 00:14:48;;;;;;;41.10;20.23;;;8.20;99.80;;;;;;6170439;23;20799;-83
2021/03/04 00:17:15;;;;;;;34.27;20.33;;;8.20;99.80;;;;;;6209762;23;20443;-83
2021/03/04 00:19:42;;;;;;;35.27;19.87;;;8.20;99.80;;;;;;6207773;23;20830;-84
2021/03/04 00:22:10;;;;;;;33.73;20.10;;;8.10;99.80;;;;;;6178765;23;20441;-84
2021/03/04 00:24:37;;;;;;;36.90;20.93;;;8.10;99.80;;;;;;6199985;22;20770;-85
2021/03/04 00:27:06;;;;;;;37.63;20.97;;;8.10;99.80;;;;;;6165591;23;20837;-84
2021/03/04 00:29:33;;;;;;;34.87;20.27;;;8.00;99.80;;;;;;6175168;23;20438;-84
2021/03/04 00:32:00;;;;;;;37.77;22.67;;;8.00;99.80;;;;;;6196478;23;20835;-86
2021/03/04 00:34:27;;;;;;;41.30;21.27;;;8.00;99.80;;;;;;6188281;23;20497;-84
2021/03/04 00:36:54;;;;;;;39.80;21.17;;;7.90;99.80;;;;;;6198515;23;20448;-87
2021/03/04 00:39:21;;;;;;;35.20;21.70;;;7.80;99.80;;;;;;6182466;23;20442;-83
2021/03/04 00:41:48;;;;;;;45.83;22.70;;;7.80;99.80;;;;;;6175602;23;20523;-86
2021/03/04 00:44:15;;;;;;;49.17;22.87;;;7.70;99.80;;;;;;6193731;23;20958;-86
2021/03/04 00:46:44;;;;;;;34.80;21.70;;;7.70;99.80;;;;;;6232864;22;20443;-83
2021/03/04 00:49:11;;;;;;;36.90;20.93;;;7.60;99.80;;;;;;6206713;23;20836;-84
2021/03/04 00:51:38;;;;;;;43.30;21.27;;;7.60;99.80;;;;;;6201259;23;20443;-84
2021/03/04 00:54:07;;;;;;;30.23;18.77;;;7.60;99.80;;;;;;6190552;23;20440;-86
2021/03/04 00:56:35;;;;;;;40.30;19.80;;;7.60;99.80;;;;;;6195205;23;20511;-85
2021/03/04 00:59:02;;;;;;;33.83;20.30;;;7.60;99.80;;;;;;6178415;22;20440;-83
2021/03/04 01:01:29;;;;;;;37.33;20.87;;;7.70;99.80;;;;;;6216458;23;20551;-83
2021/03/04 01:03:57;;;;;;;38.40;20.70;;;7.70;99.80;;;;;;6188769;23;20440;-83
2021/03/04 01:06:24;;;;;;;32.00;19.50;;;7.70;99.80;;;;;;6196805;22;20451;-84
2021/03/04 01:08:51;;;;;;;42.90;21.30;;;7.70;99.80;;;;;;6193391;23;20434;-84
2021/03/04 01:11:17;;;;;;;39.63;21.87;;;7.70;99.80;;;;;;6175715;23;20431;-86
2021/03/04 01:13:46;;;;;;;37.23;18.80;;;7.70;99.80;;;;;;6178720;23;20441;-85
2021/03/04 01:16:13;;;;;;;32.03;20.10;;;7.70;99.80;;;;;;6207531;23;20444;-83
2021/03/04 01:18:40;;;;;;;38.90;22.23;;;7.70;99.80;;;;;;6207126;23;20437;-85
2021/03/04 01:21:08;;;;;;;40.17;20.27;;;7.60;99.80;;;;;;6205129;23;20435;-82
2021/03/04 01:23:35;;;;;;;34.10;20.73;;;7.60;99.80;;;;;;6213605;22;20517;-83
2021/03/04 01:26:02;;;;;;;37.43;21.30;;;7.60;99.80;;;;;;6192863;23;21040;-84
2021/03/04 01:28:29;;;;;;;39.17;20.50;;;7.50;99.80;;;;;;6179154;23;20964;-82
2021/03/04 01:30:57;;;;;;;43.13;21.60;;;7.40;99.80;;;;;;6211210;23;20431;-84
2021/03/04 01:33:24;;;;;;;38.57;20.33;;;7.40;99.80;;;;;;6207840;23;20440;-86
2021/03/04 01:35:51;;;;;;;35.33;20.20;;;7.30;99.80;;;;;;6190251;23;20447;-84
2021/03/04 01:38:18;;;;;;;38.10;21.37;;;7.30;99.80;;;;;;6178486;23;20482;-83
2021/03/04 01:40:47;;;;;;;36.77;20.67;;;7.20;99.80;;;;;;6190742;22;20473;-84
2021/03/04 01:43:14;;;;;;;32.87;20.23;;;7.20;99.80;;;;;;6179716;23;20580;-83
2021/03/04 01:45:41;;;;;;;31.83;19.40;;;7.20;99.80;;;;;;6199648;23;20440;-86
2021/03/04 01:48:10;;;;;;;41.80;20.83;;;7.20;99.80;;;;;;6208431;22;20772;-86
2021/03/04 01:50:38;;;;;;;35.90;20.90;;;7.30;99.80;;;;;;6203143;23;20515;-83
2021/03/04 01:53:05;;;;;;;36.53;20.07;;;7.30;99.80;;;;;;6202014;23;21024;-83
2021/03/04 01:55:32;;;;;;;42.67;22.67;;;7.30;99.80;;;;;;6202365;23;20532;-85
2021/03/04 01:57:59;;;;;;;32.53;20.27;;;7.30;99.80;;;;;;6186200;23;20528;-86
2021/03/04 02:00:26;;;;;;;37.47;20.60;;;7.30;99.80;;;;;;6185413;23;20524;-85
2021/03/04 02:02:53;;;;;;;43.90;20.50;;;7.30;99.80;;;;;;6202986;23;20850;-83
2021/03/04 02:05:23;;;;;;;35.87;19.90;;;7.30;99.80;;;;;;6195335;23;21233;-86
2021/03/04 02:08:00;;;;;;;43.77;22.17;;;7.20;99.80;;;;;;6181821;23;20518;-86
2021/03/04 02:10:34;;;;;;;32.40;21.17;;;7.10;99.80;;;;;;6186132;23;20442;-86
2021/03/04 02:13:16;;;;;;;35.33;20.40;;;7.00;99.80;;;;;;6161350;23;21209;-83
2021/03/04 02:15:50;;;;;;;36.17;20.07;;;7.00;99.80;;;;;;6186999;22;20436;-86
2021/03/04 02:18:18;;;;;;;35.37;21.00;;;6.90;99.80;;;;;;6181174;23;20437;-86
2021/03/04 02:21:18;;;;;;;42.10;22.20;;;7.00;99.80;;;;;;6174114;23;20428;-85
2021/03/04 02:24:15;;;;;;;36.03;19.80;;;7.00;99.80;;;;;;6182276;23;20427;-85
2021/03/04 02:27:02;;;;;;;37.80;22.20;;;7.00;99.80;;;;;;6175845;23;20433;-85
2021/03/04 02:29:35;;;;;;;35.97;20.90;;;6.90;99.80;;;;;;6171918;23;20438;-86
2021/03/04 02:32:02;;;;;;;38.87;21.90;;;6.90;99.80;;;;;;6206482;23;20468;-87
2021/03/04 02:34:31;;;;;;;37.67;21.97;;;6.90;99.80;;;;;;6204786;23;20449;-87
2021/03/04 02:37:02;;;;;;;33.33;21.40;;;6.90;99.80;;;;;;6202798;23;20446;-86
2021/03/04 02:39:31;;;;;;;41.37;23.13;;;6.90;99.80;;;;;;6154357;23;20440;-85
2021/03/04 02:42:00;;;;;;;41.10;21.33;;;6.90;99.80;;;;;;6179489;23;20591;-85
2021/03/04 02:44:27;;;;;;;44.20;23.30;;;6.90;99.80;;;;;;6162630;23;20436;-85
2021/03/04 02:46:55;;;;;;;37.33;21.27;;;6.90;99.80;;;;;;6200165;23;20524;-84
2021/03/04 02:49:37;;;;;;;38.97;21.27;;;6.90;99.80;;;;;;6170708;23;21014;-84
2021/03/04 02:52:06;;;;;;;36.00;21.33;;;6.90;99.80;;;;;;6135160;23;21048;-84
2021/03/04 02:54:34;;;;;;;34.30;19.80;;;6.90;99.80;;;;;;6152670;23;20522;-84
2021/03/04 02:57:02;;;;;;;36.00;20.67;;;6.90;99.80;;;;;;6175054;23;20473;-84
2021/03/04 02:59:30;;;;;;;37.30;21.37;;;7.00;99.80;;;;;;6192242;23;20931;-85
2021/03/04 03:01:58;;;;;;;36.43;19.93;;;7.00;99.80;;;;;;6217462;22;20520;-85
2021/03/04 03:04:26;;;;;;;43.40;22.40;;;7.10;99.80;;;;;;6213329;23;20829;-85
2021/03/04 03:06:55;;;;;;;37.07;21.13;;;7.10;99.80;;;;;;6212733;23;21082;-84
2021/03/04 03:09:22;;;;;;;33.13;19.83;;;7.20;99.80;;;;;;6213682;23;20397;-85
2021/03/04 03:11:50;;;;;;;35.93;19.87;;;7.20;99.80;;;;;;6213239;23;20415;-85
2021/03/04 03:14:19;;;;;;;31.83;20.00;;;7.30;99.80;;;;;;6195119;23;21017;-84
2021/03/04 03:16:46;;;;;;;39.23;21.13;;;7.30;99.80;;;;;;6216778;23;20771;-85
2021/03/04 03:19:13;;;;;;;37.13;21.80;;;7.30;99.80;;;;;;6181900;23;20440;-84
2021/03/04 03:21:40;;;;;;;33.40;19.90;;;7.30;99.80;;;;;;6200393;23;20470;-84
2021/03/04 03:24:08;;;;;;;41.70;21.00;;;7.20;99.80;;;;;;6194569;23;20558;-84
2021/03/04 03:26:36;;;;;;;34.33;20.10;;;7.10;99.80;;;;;;6197892;23;20446;-84
2021/03/04 03:29:04;;;;;;;39.90;20.37;;;7.00;99.80;;;;;;6197605;23;20435;-84
2021/03/04 03:31:34;;;;;;;34.63;20.50;;;7.00;99.80;;;;;;6206454;23;20447;-84
2021/03/04 03:34:03;;;;;;;41.93;22.17;;;6.90;99.80;;;;;;6205136;23;20441;-84
2021/03/04 03:36:33;;;;;;;42.50;20.50;;;6.80;99.80;;;;;;6195507;23;20438;-85
2021/03/04 03:39:01;;;;;;;39.33;22.30;;;6.70;99.80;;;;;;6191755;23;20425;-84
2021/03/04 03:41:29;;;;;;;37.87;22.30;;;6.60;99.80;;;;;;6193244;23;20440;-84
2021/03/04 03:43:57;;;;;;;46.43;23.57;;;6.40;99.80;;;;;;6194851;23;20437;-85
2021/03/04 03:46:25;;;;;;;37.10;21.33;;;6.20;99.80;;;;;;6203005;23;20446;-86
2021/03/04 03:48:53;;;;;;;45.93;23.10;;;6.10;99.80;;;;;;6183378;23;20435;-85
2021/03/04 03:51:21;;;;;;;43.83;22.23;;;6.00;99.80;;;;;;6178077;23;20443;-84
2021/03/04 03:53:49;;;;;;;38.93;21.47;;;5.90;99.80;;;;;;6196332;23;20432;-84
2021/03/04 03:56:17;;;;;;;43.43;21.80;;;5.80;99.80;;;;;;6183474;23;20448;-85
2021/03/04 03:58:44;;;;;;;50.10;23.43;;;5.70;99.80;;;;;;6199684;23;21298;-84
2021/03/04 04:01:11;;;;;;;43.37;22.43;;;5.60;99.80;;;;;;6215491;23;21030;-85
2021/03/04 04:03:38;;;;;;;36.50;21.07;;;5.60;99.80;;;;;;6202747;23;20438;-84
2021/03/04 04:06:07;;;;;;;36.70;21.40;;;5.60;99.80;;;;;;6205730;23;20843;-84
2021/03/04 04:08:35;;;;;;;35.47;20.90;;;5.60;99.80;;;;;;6203500;23;20448;-84
2021/03/04 04:11:02;;;;;;;42.47;21.60;;;5.60;99.80;;;;;;6177530;23;20436;-84
2021/03/04 04:13:29;;;;;;;41.83;21.93;;;5.60;99.80;;;;;;6169079;23;20516;-85
2021/03/04 04:15:56;;;;;;;35.83;20.37;;;5.60;99.80;;;;;;6202623;23;20523;-84
2021/03/04 04:18:23;;;;;;;32.17;18.97;;;5.70;99.80;;;;;;6198997;23;20432;-84
2021/03/04 04:20:51;;;;;;;42.17;22.73;;;5.60;99.80;;;;;;6158494;22;20460;-84
2021/03/04 04:23:19;;;;;;;40.43;23.47;;;5.70;99.80;;;;;;6174486;22;20526;-84
2021/03/04 04:25:50;;;;;;;48.70;24.07;;;5.70;99.80;;;;;;6181142;22;20464;-84
2021/03/04 04:28:17;;;;;;;39.63;24.10;;;5.70;99.80;;;;;;6162684;23;20437;-84
2021/03/04 04:30:44;;;;;;;42.77;26.67;;;5.70;99.80;;;;;;6203706;23;20452;-86
2021/03/04 04:33:12;;;;;;;35.97;22.07;;;5.70;99.80;;;;;;6205590;23;20436;-85
2021/03/04 04:35:40;;;;;;;38.63;21.70;;;5.70;99.80;;;;;;6175763;23;20548;-84
2021/03/04 04:38:06;;;;;;;39.43;21.77;;;5.70;99.80;;;;;;6173019;23;20431;-85
2021/03/04 04:40:34;;;;;;;39.53;21.07;;;5.70;99.80;;;;;;6174540;23;21414;-85
2021/03/04 04:43:01;;;;;;;40.10;20.43;;;5.60;99.80;;;;;;6194224;23;20416;-84
2021/03/04 04:45:29;;;;;;;39.70;21.60;;;5.70;99.80;;;;;;6186735;23;20446;-84
2021/03/04 04:47:56;;;;;;;45.40;21.60;;;5.70;99.80;;;;;;6207920;23;20456;-84
2021/03/04 04:50:23;;;;;;;39.27;20.77;;;5.60;99.80;;;;;;6220090;23;20434;-84
2021/03/04 04:52:52;;;;;;;36.00;20.70;;;5.60;99.80;;;;;;6196572;23;20447;-83
2021/03/04 04:55:19;;;;;;;30.33;19.60;;;;;;;;;;6209395;23;20547;-84
2021/03/04 04:57:47;;;;;;;36.87;19.30;;;5.60;99.80;;;;;;6203413;23;20443;-84
2021/03/04 05:00:15;;;;;;;35.67;21.13;;;5.60;99.80;;;;;;6186645;22;20451;-83
2021/03/04 05:02:42;;;;;;;34.47;19.90;;;5.50;99.80;;;;;;6213931;22;20423;-84
2021/03/04 05:05:10;;;;;;;39.33;21.00;;;5.50;99.80;;;;;;6197559;23;21256;-84
2021/03/04 05:07:37;;;;;;;35.90;21.60;;;5.50;99.80;;;;;;6182791;22;20515;-84
2021/03/04 05:10:06;;;;;;;33.93;20.17;;;5.50;99.80;;;;;;6184241;23;20684;-84
2021/03/04 05:12:33;;;;;;;38.20;20.80;;;5.50;99.80;;;;;;6181076;23;20435;-85
2021/03/04 05:15:01;;;;;;;35.97;21.33;;;5.60;99.80;;;;;;6184030;23;20443;-85
2021/03/04 05:17:28;;;;;;;41.90;20.40;;;5.60;99.80;;;;;;6208703;23;21050;-85
2021/03/04 05:19:55;;;;;;;32.30;19.83;;;5.60;99.80;;;;;;6209091;23;20444;-85
2021/03/04 05:22:22;;;;;;;44.20;20.97;;;5.50;99.80;;;;;;6188280;23;20973;-85
2021/03/04 05:24:49;;;;;;;35.50;19.47;;;5.50;99.80;;;;;;6186950;22;20506;-84
2021/03/04 05:27:16;;;;;;;33.07;21.00;;;5.40;99.80;;;;;;6192606;23;21036;-84
2021/03/04 05:29:43;;;;;;;36.43;21.30;;;5.40;99.80;;;;;;6165789;23;20529;-84
2021/03/04 05:32:11;;;;;;;37.30;21.70;;;5.40;99.80;;;;;;6213705;23;20517;-84
2021/03/04 05:34:39;;;;;;;37.13;22.27;;;5.40;99.80;;;;;;6182149;23;20439;-85
2021/03/04 05:37:06;;;;;;;38.53;20.73;;;5.40;99.80;;;;;;6167713;23;20507;-85
2021/03/04 05:39:33;;;;;;;52.30;27.10;;;5.40;99.80;;;;;;6164803;23;20443;-85
2021/03/04 05:42:04;;;;;;;41.03;24.87;;;5.50;99.80;;;;;;6195540;23;20459;-85
2021/03/04 05:44:32;;;;;;;37.77;23.87;;;5.50;99.80;;;;;;6179456;23;20428;-85
2021/03/04 05:46:59;;;;;;;37.40;23.97;;;5.50;99.80;;;;;;6210503;23;20451;-86
2021/03/04 05:49:30;;;;;;;40.43;24.70;;;5.50;99.80;;;;;;6207345;23;20444;-85
2021/03/04 05:52:00;;;;;;;40.23;22.83;;;5.50;99.80;;;;;;6209611;23;20507;-86
2021/03/04 05:54:28;;;;;;;40.27;21.60;;;5.60;99.80;;;;;;6187889;23;20921;-86
2021/03/04 05:56:57;;;;;;;41.47;22.13;;;5.70;99.80;;;;;;6183034;23;21031;-85
2021/03/04 05:59:26;;;;;;;34.87;20.23;;;5.80;99.80;;;;;;6187153;23;20494;-85
2021/03/04 06:01:54;;;;;;;37.27;21.13;;;5.90;99.80;;;;;;6226507;23;20486;-86
2021/03/04 06:04:21;;;;;;;34.83;20.37;;;5.90;99.80;;;;;;6185220;23;20443;-85
2021/03/04 06:06:49;;;;;;;37.13;20.60;;;6.00;99.80;;;;;;6182695;23;20443;-85
2021/03/04 06:09:16;;;;;;;31.73;19.67;;;6.00;99.80;;;;;;6182219;23;20445;-86
2021/03/04 06:11:43;;;;;;;46.33;26.27;;;6.00;99.80;;;;;;6174939;23;20471;-85
2021/03/04 06:14:11;;;;;;;46.50;26.67;;;6.00;99.80;;;;;;6161239;22;20434;-85
2021/03/04 06:16:40;;;;;;;38.50;21.73;;;5.90;99.80;;;;;;6220598;23;20463;-87
2021/03/04 06:19:18;;;;;;;37.50;21.67;;;5.90;99.80;;;;;;6205090;23;20544;-88
2021/03/04 06:21:45;;;;;;;37.63;21.07;;;5.80;99.80;;;;;;6176205;23;20568;-88
2021/03/04 06:24:14;;;;;;;37.47;21.17;;;5.80;99.80;;;;;;6167763;23;20778;-88
2021/03/04 06:26:41;;;;;;;38.57;20.40;;;;;;;;;;6158910;23;20436;-88
2021/03/04 06:29:12;;;;;;;38.13;19.97;;;5.80;99.80;;;;;;6151653;23;20462;-89
2021/03/04 06:31:40;;;;;;;37.50;21.20;;;5.70;99.80;;;;;;6173540;23;20468;-88
2021/03/04 06:34:20;;;;;;;37.50;20.73;;;5.80;99.80;;;;;;6175916;23;20203;-88
2021/03/04 06:36:56;;;;;;;38.83;20.90;;;5.80;99.80;;;;;;6153765;23;20453;-88
2021/03/04 06:39:24;;;;;;;32.37;20.50;;;5.90;99.80;;;;;;6137382;23;20518;-88
2021/03/04 06:42:01;;;;;;;39.10;21.97;;;6.00;99.80;;;;;;6150288;23;20436;-88
2021/03/04 06:44:38;;;;;;;35.23;21.10;;;6.10;99.80;;;;;;6150095;23;20544;-89
2021/03/04 06:47:06;;;;;;;38.83;21.93;;;6.30;99.80;;;;;;6184590;23;20506;-88
2021/03/04 06:49:40;;;;;;;35.10;20.23;;;6.40;99.80;;;;;;6170761;23;20850;-87
2021/03/04 06:52:09;;;;;;;38.53;23.40;;;6.40;99.80;;;;;;6170982;23;20719;-88
2021/03/04 06:54:37;;;;;;;43.80;19.73;;;6.50;99.80;;;;;;6169171;22;20949;-88
2021/03/04 06:57:11;;;;;;;42.37;20.97;;;6.60;99.80;;;;;;6195253;23;20459;-88
2021/03/04 06:59:45;;;;;;;39.27;22.63;;;6.70;99.80;;;;;;6188625;22;20447;-88
2021/03/04 07:02:23;;;;;;;35.50;19.53;;;6.70;99.80;;;;;;6215783;23;20543;-88
2021/03/04 07:04:56;;;;;;;40.93;20.97;;;6.80;99.80;;;;;;6206828;23;20928;-88
2021/03/04 07:07:25;;;;;;;37.83;22.20;;;6.80;99.80;;;;;;6199497;23;20514;-88
2021/03/04 07:09:54;;;;;;;37.50;21.07;;;6.80;99.80;;;;;;6176637;22;20894;-88
2021/03/04 07:12:24;;;;;;;42.53;25.60;;;6.80;99.80;;;;;;6183848;23;20448;-86
2021/03/04 07:14:52;;;;;;;41.37;22.73;;;6.80;99.80;;;;;;6181819;22;20442;-87
2021/03/04 07:17:23;;;;;;;38.93;25.13;;;6.80;99.80;;;;;;6205460;23;20899;-86
2021/03/04 07:19:53;;;;;;;40.47;25.53;;;6.80;99.80;;;;;;6190733;23;20440;-87
2021/03/04 07:22:21;;;;;;;38.67;23.10;;;6.70;99.80;;;;;;6184045;23;20444;-86
2021/03/04 07:24:48;;;;;;;38.67;23.70;;;6.70;99.80;;;;;;6181946;23;21059;-86
2021/03/04 07:27:17;;;;;;;36.90;22.40;;;6.70;99.80;;;;;;6178731;22;20446;-87
2021/03/04 07:29:45;;;;;;;40.33;22.33;;;6.70;99.80;;;;;;6169943;23;20514;-86
2021/03/04 07:32:15;;;;;;;35.80;20.03;;;6.80;99.80;;;;;;6222600;23;20439;-86
2021/03/04 07:34:44;;;;;;;40.90;22.43;;;6.90;99.80;;;;;;6205164;23;20438;-86
2021/03/04 07:37:16;;;;;;;39.37;19.77;;;7.00;99.80;;;;;;6205398;23;20466;-86
2021/03/04 07:39:43;;;;;;;43.67;21.20;;;7.00;99.80;;;;;;6192355;23;20452;-86
2021/03/04 07:42:18;;;;;;;38.23;21.00;;;7.00;99.80;;;;;;6195721;23;20441;-86
2021/03/04 07:44:45;;;;;;;33.87;21.23;;;7.00;99.80;;;;;;6184818;23;20450;-86
2021/03/04 07:47:12;;;;;;;34.37;20.90;;;7.10;99.80;;;;;;6216071;23;20449;-87
2021/03/04 07:49:43;;;;;;;39.10;20.50;;;7.20;99.80;;;;;;6176960;23;20432;-86
2021/03/04 07:52:11;;;;;;;43.43;21.10;;;7.30;99.80;;;;;;6194849;22;20582;-88
2021/03/04 07:54:39;;;;;;;35.53;21.80;;;7.40;99.80;;;;;;6173175;22;20469;-85
2021/03/04 07:57:08;;;;;;;36.23;21.13;;;7.60;99.80;;;;;;6162371;22;20759;-85
2021/03/04 07:59:48;;;;;;;32.60;19.90;;;7.70;99.80;;;;;;6181610;23;20566;-86
2021/03/04 08:02:22;;;;;;;39.73;20.77;;;7.80;99.80;;;;;;6220318;23;20504;-85
2021/03/04 08:04:49;;;;;;;38.53;23.83;;;7.90;99.80;;;;;;6206019;23;21088;-85
2021/03/04 08:07:24;;;;;;;37.63;21.87;;;8.00;99.80;;;;;;6203463;23;20477;-85
2021/03/04 08:09:51;;;;;;;38.87;22.13;;;8.10;99.80;;;;;;6198130;23;20447;-85
2021/03/04 08:12:18;;;;;;;43.10;23.20;;;8.30;99.80;;;;;;6184631;22;21008;-85
2021/03/04 08:14:57;;;;;;;34.73;21.23;;;8.50;99.80;;;;;;6189811;23;20438;-86
2021/03/04 08:17:36;;;;;;;33.43;19.83;;;8.70;99.80;;;;;;6215049;23;20454;-85
2021/03/04 08:20:08;;;;;;;43.20;21.93;;;9.10;99.80;;;;;;6197314;23;20434;-85
2021/03/04 08:22:45;;;;;;;35.53;20.73;;;9.30;99.80;;;;;;6186306;23;20438;-86
2021/03/04 08:25:14;;;;;;;37.30;19.73;;;9.80;99.80;;;;;;6191853;23;20442;-85
2021/03/04 08:27:43;;;;;;;31.30;19.83;;;9.80;99.80;;;;;;6168710;22;20465;-85
2021/03/04 08:30:13;;;;;;;31.80;22.23;;;10.10;99.80;;;;;;6186478;23;20446;-85
2021/03/04 08:32:42;;;;;;;37.77;21.37;;;10.10;99.80;;;;;;6210120;22;20501;-86
2021/03/04 08:35:17;;;;;;;43.47;20.83;;;10.10;99.50;;;;;;6205435;23;20513;-84
2021/03/04 08:37:44;;;;;;;38.63;22.03;;;10.10;99.80;;;;;;6201185;23;20541;-85
2021/03/04 08:40:12;;;;;;;39.77;23.10;;;10.20;99.80;;;;;;6203653;23;20457;-85
2021/03/04 08:42:39;;;;;;;38.57;21.40;;;10.10;99.80;;;;;;6202638;23;20437;-85
2021/03/04 08:45:07;;;;;;;39.13;22.00;;;10.10;99.80;;;;;;6175044;23;20544;-85
2021/03/04 08:47:39;;;;;;;41.70;22.13;;;10.20;99.80;;;;;;6177520;23;20448;-85
2021/03/04 08:50:07;;;;;;;34.87;20.40;;;10.20;99.80;;;;;;6167359;23;20433;-85
2021/03/04 08:52:35;;;;;;;40.20;22.33;;;10.20;99.80;;;;;;6161367;23;20953;-86
2021/03/04 08:55:05;;;;;;;35.63;21.30;;;10.10;99.80;;;;;;6180972;22;20525;-86
2021/03/04 08:57:34;;;;;;;35.13;22.33;;;10.30;99.80;;;;;;6174854;23;20495;-85
2021/03/04 09:00:09;;;;;;;36.50;21.80;;;10.40;99.80;;;;;;6174258;22;20433;-84
2021/03/04 09:02:44;;;;;;;39.13;21.10;;;10.70;99.80;;;;;;6165470;23;20480;-84
2021/03/04 09:05:16;;;;;;;35.50;21.67;;;10.70;99.80;;;;;;6175119;23;20517;-85
2021/03/04 09:07:44;;;;;;;34.00;21.53;;;10.70;99.80;;;;;;6179199;23;20446;-85
2021/03/04 09:10:12;;;;;;;36.33;20.50;;;10.80;98.40;;;;;;6161121;23;20540;-86
2021/03/04 09:12:43;;;;;;;38.80;21.80;;;10.80;97.70;;;;;;6179740;22;20507;-86
2021/03/04 09:15:12;;;;;;;33.30;21.33;;;10.90;98.10;;;;;;6192000;23;20433;-86
2021/03/04 09:17:40;;;;;;;33.27;22.70;;;11.10;97.60;;;;;;6176223;23;20948;-85
2021/03/04 09:20:11;;;;;;;42.10;22.43;;;11.10;97.60;;;;;;6173126;23;20435;-85
2021/03/04 09:22:40;;;;;;;32.43;21.03;;;11.30;97.20;;;;;;6154327;23;21034;-85
2021/03/04 09:25:10;;;;;;;34.87;21.90;;;11.30;97.20;;;;;;6153052;23;20435;-86
2021/03/04 09:27:38;;;;;;;34.93;22.87;;;11.40;96.60;;;;;;6172257;23;20510;-86
2021/03/04 09:30:06;;;;;;;35.17;22.50;;;11.40;97.30;;;;;;6196259;22;20772;-85
2021/03/04 09:32:34;;;;;;;38.20;22.60;;;11.70;95.90;;;;;;6201332;22;20459;-86
2021/03/04 09:35:11;;;;;;;38.57;22.30;;;11.90;95.40;;;;;;6191731;23;20502;-86
2021/03/04 09:37:41;;;;;;;33.40;21.63;;;12.00;95.40;;;;;;6187789;23;20450;-85
2021/03/04 09:40:22;;;;;;;45.80;22.00;;;12.10;94.80;;;;;;6173389;22;20445;-85
2021/03/04 09:42:49;;;;;;;35.07;20.90;;;12.40;94.90;;;;;;6173607;23;20522;-85
2021/03/04 09:45:16;;;;;;;34.53;21.80;;;13.00;91.00;;;;;;6185050;22;20511;-88
2021/03/04 09:47:45;;;;;;;38.80;21.30;;;13.00;90.90;;;;;;6214559;23;20462;-88
2021/03/04 09:50:24;;;;;;;34.70;22.20;;;13.00;89.80;;;;;;6209256;23;20514;-88
2021/03/04 09:52:59;;;;;;;35.00;20.60;;;13.30;89.90;;;;;;6209821;23;20958;-88
2021/03/04 09:55:27;;;;;;;32.57;20.10;;;13.30;89.80;;;;;;6186339;23;20501;-89
2021/03/04 09:57:54;;;;;;;35.47;20.37;;;12.90;91.20;;;;;;6181439;23;20625;-88
2021/03/04 10:00:24;;;;;;;33.17;21.33;;;12.90;91.20;;;;;;6190835;23;20433;-89
2021/03/04 10:02:53;;;;;;;31.87;21.93;;;12.70;91.20;;;;;;6215965;23;20504;-88
2021/03/04 10:05:23;;;;;;;35.83;22.30;;;12.20;91.70;;;;;;6183452;23;20436;-88
2021/03/04 10:07:56;;;;;;;36.90;20.73;;;12.30;91.70;;;;;;6168369;22;20463;-89
2021/03/04 10:10:24;;;;;;;29.87;20.10;;;12.00;93.00;;;;;;6175117;23;20438;-89
2021/03/04 10:12:52;;;;;;;34.17;22.40;;;12.00;93.00;;;;;;6185731;22;20613;-89
2021/03/04 10:15:27;;;;;;;31.83;20.70;;;11.90;93.50;;;;;;6196774;23;20492;-88
2021/03/04 10:17:55;;;;;;;33.70;20.40;;;12.00;93.40;;;;;;6211525;23;20439;-88
2021/03/04 10:20:24;;;;;;;38.60;22.67;;;12.10;93.80;;;;;;6202459;23;20756;-88
2021/03/04 10:22:52;;;;;;;39.53;21.97;;;12.10;93.80;;;;;;6204808;23;20487;-88
2021/03/04 10:25:20;;;;;;;36.10;23.03;;;12.50;92.80;;;;;;6198258;23;20443;-89
2021/03/04 10:27:47;;;;;;;32.33;21.60;;;12.50;92.60;;;;;;6169652;23;20470;-88
2021/03/04 10:30:15;;;;;;;30.43;20.20;;;12.70;91.50;;;;;;6181572;23;20521;-83
2021/03/04 10:32:43;;;;;;;38.50;21.97;;;13.30;91.40;;;;;;6211763;23;20444;-84
2021/03/04 10:35:12;;;;;;;39.60;22.53;;;13.80;88.20;;;;;;6192358;23;20449;-89
2021/03/04 10:37:41;;;;;;;36.13;19.70;;;13.80;88.00;;;;;;6170591;23;20447;-89
2021/03/04 10:40:10;;;;;;;37.40;21.70;;;13.80;88.00;;;;;;6184840;23;20506;-88
2021/03/04 10:42:37;;;;;;;37.17;21.80;;;13.80;88.10;;;;;;6173250;23;20441;-89
2021/03/04 10:45:09;;;;;;;40.77;21.80;;;13.90;87.10;;;;;;6181550;23;20526;-89
2021/03/04 10:47:36;;;;;;;34.90;19.47;;;13.70;86.90;;;;;;6198642;23;20438;-88
2021/03/04 10:50:05;;;;;;;32.17;19.63;;;13.50;87.40;;;;;;6176924;22;20440;-89
2021/03/04 10:52:32;;;;;;;39.97;21.63;;;13.20;88.90;;;;;;6191134;22;20439;-88
2021/03/04 10:55:00;;;;;;;38.33;21.73;;;13.30;89.80;;;;;;6180645;23;20521;-88
2021/03/04 10:57:27;;;;;;;26.90;18.40;;;13.30;89.80;;;;;;6193321;22;20499;-88
2021/03/04 10:59:54;;;;;;;35.10;19.63;;;13.50;87.60;;;;;;6170197;22;20478;-88
2021/03/04 11:02:21;;;;;;;31.80;20.07;;;13.90;85.70;;;;;;6212502;22;21091;-88
2021/03/04 11:04:49;;;;;;;33.07;20.47;;;14.10;86.70;;;;;;6206670;23;20442;-88
2021/03/04 11:07:16;;;;;;;31.43;18.93;;;14.10;86.70;;;;;;6198940;23;20500;-88
2021/03/04 11:09:43;;;;;;;37.83;19.10;;;;;;;;;;6167018;22;20439;-87
2021/03/04 11:12:11;;;;;;;27.70;17.77;;;14.60;83.60;;;;;;6191403;23;21319;-88
2021/03/04 11:14:38;;;;;;;35.63;18.37;;;15.00;82.30;;;;;;6163053;22;20466;-87
2021/03/04 11:17:05;;;;;;;30.37;18.33;;;15.70;80.70;;;;;;6208809;23;20447;-88
2021/03/04 11:19:33;;;;;;;32.23;20.37;;;15.90;79.20;;;;;;6176368;23;20432;-88
2021/03/04 11:22:00;;;;;;;30.73;19.30;;;;;;;;;;6160117;23;20470;-88
2021/03/04 11:24:28;;;;;;;32.90;20.33;;;;;;;;;;6157707;22;20543;-88
2021/03/04 11:26:55;;;;;;;34.10;20.00;;;;;;;;;;6189174;23;20458;-87
2021/03/04 11:29:23;;;;;;;34.43;19.77;;;17.10;76.30;;;;;;6182769;23;20468;-88
2021/03/04 11:31:50;;;;;;;29.90;18.53;;;17.30;75.60;;;;;;6220735;23;20508;-88
2021/03/04 11:34:17;;;;;;;30.80;19.50;;;17.40;75.00;;;;;;6203782;23;20495;-88
2021/03/04 11:36:45;;;;;;;26.63;17.33;;;;;;;;;;6204153;23;20835;-88
2021/03/04 11:39:12;;;;;;;33.93;19.70;;;;;;;;;;6190321;22;20577;-88
2021/03/04 11:41:39;;;;;;;31.07;19.33;;;19.00;72.40;;;;;;6193885;22;20481;-87
2021/03/04 11:44:06;;;;;;;33.20;19.30;;;21.50;66.80;;;;;;6160834;23;20442;-88
2021/03/04 11:46:34;;;;;;;30.10;18.67;;;23.00;62.80;;;;;;6193399;23;20526;-88
2021/03/04 11:49:04;;;;;;;34.23;19.30;;;22.20;63.40;;;;;;6196633;23;20439;-88
2021/03/04 11:51:32;;;;;;;34.17;20.27;;;;;;;;;;6190204;22;20501;-89
2021/03/04 11:53:59;;;;;;;37.30;19.87;;;22.40;62.10;;;;;;6165950;23;20439;-87
2021/03/04 11:56:26;;;;;;;30.43;19.77;;;21.10;64.60;;;;;;6170150;22;20465;-87
2021/03/04 11:58:53;;;;;;;33.67;20.47;;;;;;;;;;6181763;23;20445;-87
2021/03/04 12:01:20;;;;;;;34.10;21.57;;;18.50;70.40;;;;;;6196151;22;20440;-87
2021/03/04 12:03:48;;;;;;;37.63;22.37;;;17.40;73.60;;;;;;6204259;23;20440;-87
2021/03/04 12:06:15;;;;;;;33.43;20.50;;;17.40;73.60;;;;;;6205915;23;20931;-87
2021/03/04 12:08:42;;;;;;;32.70;22.50;;;;;;;;;;6203768;23;21049;-86
2021/03/04 12:11:29;;;;;;;35.60;22.83;;;17.10;75.20;;;;;;6155347;23;20443;-87
2021/03/04 12:13:56;;;;;;;32.80;21.00;;;16.00;78.90;;;;;;6138641;23;21032;-86
2021/03/04 12:16:23;;;;;;;37.33;22.37;;;16.00;78.90;;;;;;6180912;23;20446;-81
2021/03/04 12:18:51;;;;;;;44.20;22.30;;;15.50;80.40;;;;;;6176902;23;20742;-81
2021/03/04 12:21:18;;;;;;;42.07;24.07;;;15.10;82.00;;;;;;6149015;23;20509;-81
2021/03/04 12:23:46;;;;;;;39.60;23.83;;;14.80;83.60;;;;;;6126264;23;20898;-82
2021/03/04 12:26:13;;;;;;;40.73;23.10;;;14.70;84.30;;;;;;6154952;23;20435;-80
2021/03/04 12:28:44;;;;;;;33.60;21.97;;;14.50;85.20;;;;;;6145762;23;20515;-79
2021/03/04 12:31:11;;;;;;;36.63;22.03;;;14.60;85.90;;;;;;6168466;23;20437;-80
2021/03/04 12:33:38;;;;;;;47.30;22.83;;;14.90;84.80;;;;;;6165487;23;20459;-81
2021/03/04 12:36:06;;;;;;;39.93;21.33;;;15.10;83.80;;;;;;6143070;23;20448;-88
2021/03/04 12:38:33;;;;;;;31.43;21.23;;;;;;;;;;6130691;23;20482;-81
2021/03/04 12:41:01;;;;;;;31.17;19.50;;;;;;;;;;6163638;23;20461;-86
2021/03/04 12:43:28;;;;;;;41.40;22.03;;;;;;;;;;6143006;23;20796;-87
2021/03/04 12:45:55;;;;;;;38.93;21.27;;;;;;;;;;6169311;23;21112;-87